sensor_id;sensor_type;location;lat;lon;timestamp;P1;durP1;ratioP1;P2;durP2;ratioP2
75096;SDS011;63684;47.964;11.186;2023-06-22T00:00:43;14.02;;;6.15;;
75096;SDS011;63684;47.964;11.186;2023-06-22T00:03:09;14.13;;;6.43;;
75096;SDS011;63684;47.964;11.186;2023-06-22T00:05:35;19.05;;;6.55;;
75096;SDS011;63684;47.964;11.186;2023-06-22T00:08:03;12.05;;;5.60;;
75096;SDS011;63684;47.964;11.186;2023-06-22T00:10:32;17.65;;;6.13;;
75096;SDS011;63684;47.964;11.186;2023-06-22T00:12:57;13.98;;;6.00;;
75096;SDS011;63684;47.964;11.186;2023-06-22T00:15:23;13.02;;;5.72;;
75096;SDS011;63684;47.964;11.186;2023-06-22T00:17:49;11.77;;;5.75;;
75096;SDS011;63684;47.964;11.186;2023-06-22T00:20:20;10.40;;;5.82;;
75096;SDS011;63684;47.964;11.186;2023-06-22T00:22:46;14.85;;;5.53;;
75096;SDS011;63684;47.964;11.186;2023-06-22T00:25:12;10.10;;;5.03;;
75096;SDS011;63684;47.964;11.186;2023-06-22T00:27:38;17.42;;;6.22;;
75096;SDS011;63684;47.964;11.186;2023-06-22T00:30:05;11.60;;;5.70;;
75096;SDS011;63684;47.964;11.186;2023-06-22T00:32:31;10.57;;;5.78;;
75096;SDS011;63684;47.964;11.186;2023-06-22T00:34:57;12.88;;;5.63;;
75096;SDS011;63684;47.964;11.186;2023-06-22T00:37:22;13.95;;;5.38;;
75096;SDS011;63684;47.964;11.186;2023-06-22T00:39:52;13.48;;;5.60;;
75096;SDS011;63684;47.964;11.186;2023-06-22T00:42:18;17.23;;;6.07;;
75096;SDS011;63684;47.964;11.186;2023-06-22T00:44:43;12.10;;;5.60;;
75096;SDS011;63684;47.964;11.186;2023-06-22T00:47:10;11.05;;;5.72;;
75096;SDS011;63684;47.964;11.186;2023-06-22T00:49:41;12.35;;;6.18;;
75096;SDS011;63684;47.964;11.186;2023-06-22T00:52:07;16.55;;;5.75;;
75096;SDS011;63684;47.964;11.186;2023-06-22T00:54:35;15.02;;;5.90;;
75096;SDS011;63684;47.964;11.186;2023-06-22T00:57:01;12.13;;;5.22;;
75096;SDS011;63684;47.964;11.186;2023-06-22T00:59:27;18.85;;;6.45;;
75096;SDS011;63684;47.964;11.186;2023-06-22T01:01:52;12.85;;;6.00;;
75096;SDS011;63684;47.964;11.186;2023-06-22T01:04:18;10.68;;;5.55;;
75096;SDS011;63684;47.964;11.186;2023-06-22T01:07:01;11.43;;;6.05;;
75096;SDS011;63684;47.964;11.186;2023-06-22T01:09:33;13.55;;;6.22;;
75096;SDS011;63684;47.964;11.186;2023-06-22T01:12:02;11.13;;;5.90;;
75096;SDS011;63684;47.964;11.186;2023-06-22T01:14:38;14.05;;;6.25;;
75096;SDS011;63684;47.964;11.186;2023-06-22T01:17:05;10.73;;;5.55;;
75096;SDS011;63684;47.964;11.186;2023-06-22T01:19:46;16.10;;;5.82;;
75096;SDS011;63684;47.964;11.186;2023-06-22T01:22:17;8.02;;;5.00;;
75096;SDS011;63684;47.964;11.186;2023-06-22T01:30:10;13.77;;;5.70;;
75096;SDS011;63684;47.964;11.186;2023-06-22T01:32:37;11.18;;;5.30;;
75096;SDS011;63684;47.964;11.186;2023-06-22T01:35:04;11.38;;;5.55;;
75096;SDS011;63684;47.964;11.186;2023-06-22T01:37:31;14.10;;;5.90;;
75096;SDS011;63684;47.964;11.186;2023-06-22T01:39:58;11.95;;;6.22;;
75096;SDS011;63684;47.964;11.186;2023-06-22T01:42:24;13.98;;;5.95;;
75096;SDS011;63684;47.964;11.186;2023-06-22T01:44:50;15.82;;;6.28;;
75096;SDS011;63684;47.964;11.186;2023-06-22T01:47:17;15.25;;;5.43;;
75096;SDS011;63684;47.964;11.186;2023-06-22T01:49:42;11.80;;;6.20;;
75096;SDS011;63684;47.964;11.186;2023-06-22T01:52:08;12.25;;;6.68;;
75096;SDS011;63684;47.964;11.186;2023-06-22T01:54:34;19.15;;;6.80;;
75096;SDS011;63684;47.964;11.186;2023-06-22T01:56:59;17.27;;;7.15;;
75096;SDS011;63684;47.964;11.186;2023-06-22T01:59:36;21.05;;;7.00;;
75096;SDS011;63684;47.964;11.186;2023-06-22T02:02:09;13.73;;;6.85;;
75096;SDS011;63684;47.964;11.186;2023-06-22T02:07:28;12.88;;;6.30;;
75096;SDS011;63684;47.964;11.186;2023-06-22T02:10:00;13.13;;;6.70;;
75096;SDS011;63684;47.964;11.186;2023-06-22T02:12:27;14.52;;;6.28;;
75096;SDS011;63684;47.964;11.186;2023-06-22T02:14:53;18.88;;;7.20;;
75096;SDS011;63684;47.964;11.186;2023-06-22T02:17:19;9.13;;;5.72;;
75096;SDS011;63684;47.964;11.186;2023-06-22T02:19:44;12.00;;;5.82;;
75096;SDS011;63684;47.964;11.186;2023-06-22T02:22:10;12.02;;;6.55;;
75096;SDS011;63684;47.964;11.186;2023-06-22T02:24:35;16.90;;;6.30;;
75096;SDS011;63684;47.964;11.186;2023-06-22T02:27:01;14.48;;;7.13;;
75096;SDS011;63684;47.964;11.186;2023-06-22T02:29:27;11.27;;;6.35;;
75096;SDS011;63684;47.964;11.186;2023-06-22T02:31:53;15.98;;;6.60;;
75096;SDS011;63684;47.964;11.186;2023-06-22T02:34:19;15.15;;;7.07;;
75096;SDS011;63684;47.964;11.186;2023-06-22T02:36:46;15.02;;;6.80;;
75096;SDS011;63684;47.964;11.186;2023-06-22T02:39:22;10.57;;;6.70;;
75096;SDS011;63684;47.964;11.186;2023-06-22T02:41:52;14.98;;;6.57;;
75096;SDS011;63684;47.964;11.186;2023-06-22T02:44:18;21.83;;;7.68;;
75096;SDS011;63684;47.964;11.186;2023-06-22T02:46:47;10.48;;;6.75;;
75096;SDS011;63684;47.964;11.186;2023-06-22T02:49:14;14.50;;;7.65;;
75096;SDS011;63684;47.964;11.186;2023-06-22T02:51:41;13.75;;;7.43;;
75096;SDS011;63684;47.964;11.186;2023-06-22T02:54:10;12.07;;;7.28;;
75096;SDS011;63684;47.964;11.186;2023-06-22T02:56:36;12.90;;;7.60;;
75096;SDS011;63684;47.964;11.186;2023-06-22T02:59:02;16.48;;;7.50;;
75096;SDS011;63684;47.964;11.186;2023-06-22T03:01:33;15.95;;;8.52;;
75096;SDS011;63684;47.964;11.186;2023-06-22T03:04:06;13.70;;;7.90;;
75096;SDS011;63684;47.964;11.186;2023-06-22T03:06:32;17.98;;;7.93;;
75096;SDS011;63684;47.964;11.186;2023-06-22T03:09:03;18.90;;;8.10;;
75096;SDS011;63684;47.964;11.186;2023-06-22T03:11:31;16.20;;;8.50;;
75096;SDS011;63684;47.964;11.186;2023-06-22T03:13:57;14.07;;;7.43;;
75096;SDS011;63684;47.964;11.186;2023-06-22T03:16:23;17.10;;;8.07;;
75096;SDS011;63684;47.964;11.186;2023-06-22T03:18:48;16.33;;;7.85;;
75096;SDS011;63684;47.964;11.186;2023-06-22T03:21:14;15.77;;;8.43;;
75096;SDS011;63684;47.964;11.186;2023-06-22T03:23:40;16.50;;;8.15;;
75096;SDS011;63684;47.964;11.186;2023-06-22T03:26:06;17.77;;;8.25;;
75096;SDS011;63684;47.964;11.186;2023-06-22T03:28:32;14.18;;;8.25;;
75096;SDS011;63684;47.964;11.186;2023-06-22T03:30:57;16.05;;;8.45;;
75096;SDS011;63684;47.964;11.186;2023-06-22T03:33:23;17.42;;;7.90;;
75096;SDS011;63684;47.964;11.186;2023-06-22T03:35:49;15.63;;;9.02;;
75096;SDS011;63684;47.964;11.186;2023-06-22T03:38:15;16.60;;;7.97;;
75096;SDS011;63684;47.964;11.186;2023-06-22T03:40:41;15.70;;;8.32;;
75096;SDS011;63684;47.964;11.186;2023-06-22T03:43:07;14.02;;;8.05;;
75096;SDS011;63684;47.964;11.186;2023-06-22T03:45:34;14.05;;;7.55;;
75096;SDS011;63684;47.964;11.186;2023-06-22T03:48:00;13.77;;;7.85;;
75096;SDS011;63684;47.964;11.186;2023-06-22T03:50:26;16.02;;;7.28;;
75096;SDS011;63684;47.964;11.186;2023-06-22T03:52:52;16.83;;;7.63;;
75096;SDS011;63684;47.964;11.186;2023-06-22T03:55:19;12.35;;;7.20;;
75096;SDS011;63684;47.964;11.186;2023-06-22T03:57:45;15.70;;;7.57;;
75096;SDS011;63684;47.964;11.186;2023-06-22T04:00:10;20.48;;;8.15;;
75096;SDS011;63684;47.964;11.186;2023-06-22T04:02:40;19.52;;;8.05;;
75096;SDS011;63684;47.964;11.186;2023-06-22T04:05:06;16.90;;;8.00;;
75096;SDS011;63684;47.964;11.186;2023-06-22T04:07:31;15.73;;;7.93;;
75096;SDS011;63684;47.964;11.186;2023-06-22T04:09:57;12.55;;;7.38;;
75096;SDS011;63684;47.964;11.186;2023-06-22T04:12:22;16.92;;;8.00;;
75096;SDS011;63684;47.964;11.186;2023-06-22T04:14:48;14.82;;;7.43;;
75096;SDS011;63684;47.964;11.186;2023-06-22T04:17:13;13.20;;;7.22;;
75096;SDS011;63684;47.964;11.186;2023-06-22T04:19:39;20.90;;;7.90;;
75096;SDS011;63684;47.964;11.186;2023-06-22T04:22:05;13.75;;;7.15;;
75096;SDS011;63684;47.964;11.186;2023-06-22T04:24:32;14.40;;;7.32;;
75096;SDS011;63684;47.964;11.186;2023-06-22T04:26:58;17.45;;;7.18;;
75096;SDS011;63684;47.964;11.186;2023-06-22T04:29:25;16.10;;;7.28;;
75096;SDS011;63684;47.964;11.186;2023-06-22T04:31:54;16.35;;;7.78;;
75096;SDS011;63684;47.964;11.186;2023-06-22T04:34:21;16.95;;;7.70;;
75096;SDS011;63684;47.964;11.186;2023-06-22T04:36:46;20.52;;;7.53;;
75096;SDS011;63684;47.964;11.186;2023-06-22T04:39:12;16.77;;;7.25;;
75096;SDS011;63684;47.964;11.186;2023-06-22T04:41:38;20.65;;;8.43;;
75096;SDS011;63684;47.964;11.186;2023-06-22T04:44:13;14.35;;;7.07;;
75096;SDS011;63684;47.964;11.186;2023-06-22T04:46:48;20.52;;;7.55;;
75096;SDS011;63684;47.964;11.186;2023-06-22T04:49:19;12.60;;;7.78;;
75096;SDS011;63684;47.964;11.186;2023-06-22T04:51:45;15.35;;;7.32;;
75096;SDS011;63684;47.964;11.186;2023-06-22T04:54:11;16.02;;;7.43;;
75096;SDS011;63684;47.964;11.186;2023-06-22T04:56:37;14.10;;;7.35;;
75096;SDS011;63684;47.964;11.186;2023-06-22T04:59:02;13.65;;;7.82;;
75096;SDS011;63684;47.964;11.186;2023-06-22T05:01:28;11.15;;;6.50;;
75096;SDS011;63684;47.964;11.186;2023-06-22T05:03:55;14.38;;;7.43;;
75096;SDS011;63684;47.964;11.186;2023-06-22T05:06:22;17.23;;;7.68;;
75096;SDS011;63684;47.964;11.186;2023-06-22T05:08:58;18.05;;;7.03;;
75096;SDS011;63684;47.964;11.186;2023-06-22T05:11:27;16.45;;;7.68;;
75096;SDS011;63684;47.964;11.186;2023-06-22T05:13:52;18.80;;;8.27;;
75096;SDS011;63684;47.964;11.186;2023-06-22T05:16:18;19.65;;;7.82;;
75096;SDS011;63684;47.964;11.186;2023-06-22T05:18:49;15.85;;;7.75;;
75096;SDS011;63684;47.964;11.186;2023-06-22T05:21:21;14.25;;;6.72;;
75096;SDS011;63684;47.964;11.186;2023-06-22T05:23:51;15.82;;;7.22;;
75096;SDS011;63684;47.964;11.186;2023-06-22T05:26:17;17.63;;;6.55;;
75096;SDS011;63684;47.964;11.186;2023-06-22T05:28:43;19.95;;;7.57;;
75096;SDS011;63684;47.964;11.186;2023-06-22T05:31:12;20.25;;;6.88;;
75096;SDS011;63684;47.964;11.186;2023-06-22T05:33:38;15.00;;;6.70;;
75096;SDS011;63684;47.964;11.186;2023-06-22T05:36:04;21.25;;;7.03;;
75096;SDS011;63684;47.964;11.186;2023-06-22T05:38:30;11.80;;;6.97;;
75096;SDS011;63684;47.964;11.186;2023-06-22T05:40:56;15.90;;;6.95;;
75096;SDS011;63684;47.964;11.186;2023-06-22T05:43:21;18.75;;;6.55;;
75096;SDS011;63684;47.964;11.186;2023-06-22T05:45:47;17.55;;;6.60;;
75096;SDS011;63684;47.964;11.186;2023-06-22T05:48:12;19.67;;;7.10;;
75096;SDS011;63684;47.964;11.186;2023-06-22T05:50:37;11.40;;;6.20;;
75096;SDS011;63684;47.964;11.186;2023-06-22T05:53:03;17.67;;;6.85;;
75096;SDS011;63684;47.964;11.186;2023-06-22T05:55:28;12.43;;;7.07;;
75096;SDS011;63684;47.964;11.186;2023-06-22T05:57:54;13.38;;;6.35;;
75096;SDS011;63684;47.964;11.186;2023-06-22T06:00:19;17.05;;;6.43;;
75096;SDS011;63684;47.964;11.186;2023-06-22T06:02:45;11.63;;;6.22;;
75096;SDS011;63684;47.964;11.186;2023-06-22T06:05:11;16.83;;;6.85;;
75096;SDS011;63684;47.964;11.186;2023-06-22T06:07:39;15.63;;;6.97;;
75096;SDS011;63684;47.964;11.186;2023-06-22T06:10:04;23.05;;;7.15;;
75096;SDS011;63684;47.964;11.186;2023-06-22T06:12:31;24.10;;;7.25;;
75096;SDS011;63684;47.964;11.186;2023-06-22T06:14:56;18.80;;;6.45;;
75096;SDS011;63684;47.964;11.186;2023-06-22T06:17:22;14.27;;;6.45;;
75096;SDS011;63684;47.964;11.186;2023-06-22T06:19:47;16.98;;;6.82;;
75096;SDS011;63684;47.964;11.186;2023-06-22T06:22:13;17.23;;;7.18;;
75096;SDS011;63684;47.964;11.186;2023-06-22T06:24:38;13.98;;;6.88;;
75096;SDS011;63684;47.964;11.186;2023-06-22T06:27:03;19.33;;;7.28;;
75096;SDS011;63684;47.964;11.186;2023-06-22T06:29:30;19.25;;;7.43;;
75096;SDS011;63684;47.964;11.186;2023-06-22T06:31:56;19.55;;;7.00;;
75096;SDS011;63684;47.964;11.186;2023-06-22T06:34:21;15.70;;;6.75;;
75096;SDS011;63684;47.964;11.186;2023-06-22T06:36:47;20.65;;;7.30;;
75096;SDS011;63684;47.964;11.186;2023-06-22T06:39:12;13.27;;;6.70;;
75096;SDS011;63684;47.964;11.186;2023-06-22T06:41:38;22.58;;;6.85;;
75096;SDS011;63684;47.964;11.186;2023-06-22T06:44:08;21.40;;;6.63;;
75096;SDS011;63684;47.964;11.186;2023-06-22T06:46:34;17.33;;;6.78;;
75096;SDS011;63684;47.964;11.186;2023-06-22T06:48:59;14.45;;;6.07;;
75096;SDS011;63684;47.964;11.186;2023-06-22T06:51:25;12.30;;;6.63;;
75096;SDS011;63684;47.964;11.186;2023-06-22T06:53:50;14.43;;;6.70;;
75096;SDS011;63684;47.964;11.186;2023-06-22T06:56:16;12.32;;;6.72;;
75096;SDS011;63684;47.964;11.186;2023-06-22T06:58:41;22.02;;;6.97;;
75096;SDS011;63684;47.964;11.186;2023-06-22T07:01:07;20.17;;;6.97;;
75096;SDS011;63684;47.964;11.186;2023-06-22T07:03:33;14.73;;;6.07;;
75096;SDS011;63684;47.964;11.186;2023-06-22T07:05:59;17.83;;;6.55;;
75096;SDS011;63684;47.964;11.186;2023-06-22T07:08:24;17.45;;;6.75;;
75096;SDS011;63684;47.964;11.186;2023-06-22T07:10:50;15.98;;;7.15;;
75096;SDS011;63684;47.964;11.186;2023-06-22T07:13:17;15.88;;;6.55;;
75096;SDS011;63684;47.964;11.186;2023-06-22T07:15:42;15.13;;;6.30;;
75096;SDS011;63684;47.964;11.186;2023-06-22T07:18:08;14.30;;;6.38;;
75096;SDS011;63684;47.964;11.186;2023-06-22T07:20:33;17.88;;;6.85;;
75096;SDS011;63684;47.964;11.186;2023-06-22T07:22:59;19.95;;;6.95;;
75096;SDS011;63684;47.964;11.186;2023-06-22T07:25:25;14.00;;;6.45;;
75096;SDS011;63684;47.964;11.186;2023-06-22T07:27:57;18.23;;;5.90;;
75096;SDS011;63684;47.964;11.186;2023-06-22T07:30:24;16.80;;;6.55;;
75096;SDS011;63684;47.964;11.186;2023-06-22T07:32:49;14.48;;;6.45;;
75096;SDS011;63684;47.964;11.186;2023-06-22T07:35:15;14.75;;;6.47;;
75096;SDS011;63684;47.964;11.186;2023-06-22T07:37:41;20.05;;;5.82;;
75096;SDS011;63684;47.964;11.186;2023-06-22T07:40:07;17.95;;;6.25;;
75096;SDS011;63684;47.964;11.186;2023-06-22T07:42:33;14.75;;;6.95;;
75096;SDS011;63684;47.964;11.186;2023-06-22T07:44:59;17.10;;;6.97;;
75096;SDS011;63684;47.964;11.186;2023-06-22T07:47:24;17.38;;;6.57;;
75096;SDS011;63684;47.964;11.186;2023-06-22T07:49:53;18.35;;;6.63;;
75096;SDS011;63684;47.964;11.186;2023-06-22T07:52:20;18.42;;;5.97;;
75096;SDS011;63684;47.964;11.186;2023-06-22T07:54:46;17.10;;;6.88;;
75096;SDS011;63684;47.964;11.186;2023-06-22T07:57:12;19.52;;;6.65;;
75096;SDS011;63684;47.964;11.186;2023-06-22T07:59:37;21.23;;;6.50;;
75096;SDS011;63684;47.964;11.186;2023-06-22T08:02:03;17.55;;;6.65;;
75096;SDS011;63684;47.964;11.186;2023-06-22T08:04:29;19.00;;;7.65;;
75096;SDS011;63684;47.964;11.186;2023-06-22T08:06:56;21.88;;;6.78;;
75096;SDS011;63684;47.964;11.186;2023-06-22T08:09:22;21.58;;;7.75;;
75096;SDS011;63684;47.964;11.186;2023-06-22T08:11:47;18.02;;;6.95;;
75096;SDS011;63684;47.964;11.186;2023-06-22T08:14:14;17.98;;;6.32;;
75096;SDS011;63684;47.964;11.186;2023-06-22T08:16:41;17.13;;;6.53;;
75096;SDS011;63684;47.964;11.186;2023-06-22T08:19:06;18.20;;;6.32;;
75096;SDS011;63684;47.964;11.186;2023-06-22T08:21:32;15.73;;;6.40;;
75096;SDS011;63684;47.964;11.186;2023-06-22T08:23:57;13.32;;;6.25;;
75096;SDS011;63684;47.964;11.186;2023-06-22T08:26:23;14.80;;;6.57;;
75096;SDS011;63684;47.964;11.186;2023-06-22T08:28:48;18.60;;;7.25;;
75096;SDS011;63684;47.964;11.186;2023-06-22T08:31:14;21.02;;;6.95;;
75096;SDS011;63684;47.964;11.186;2023-06-22T08:33:39;14.88;;;6.55;;
75096;SDS011;63684;47.964;11.186;2023-06-22T08:36:05;20.15;;;7.53;;
75096;SDS011;63684;47.964;11.186;2023-06-22T08:38:31;16.23;;;6.82;;
75096;SDS011;63684;47.964;11.186;2023-06-22T08:40:57;20.70;;;7.30;;
75096;SDS011;63684;47.964;11.186;2023-06-22T08:43:22;21.55;;;7.07;;
75096;SDS011;63684;47.964;11.186;2023-06-22T08:45:48;17.63;;;6.10;;
75096;SDS011;63684;47.964;11.186;2023-06-22T08:48:13;19.25;;;6.72;;
75096;SDS011;63684;47.964;11.186;2023-06-22T08:50:39;21.75;;;6.57;;
75096;SDS011;63684;47.964;11.186;2023-06-22T08:53:05;19.92;;;7.00;;
75096;SDS011;63684;47.964;11.186;2023-06-22T08:55:31;22.02;;;6.88;;
75096;SDS011;63684;47.964;11.186;2023-06-22T08:57:56;18.48;;;7.60;;
75096;SDS011;63684;47.964;11.186;2023-06-22T09:00:22;15.98;;;6.30;;
75096;SDS011;63684;47.964;11.186;2023-06-22T09:02:47;17.48;;;6.68;;
75096;SDS011;63684;47.964;11.186;2023-06-22T09:05:13;22.38;;;7.22;;
75096;SDS011;63684;47.964;11.186;2023-06-22T09:07:38;22.48;;;7.15;;
75096;SDS011;63684;47.964;11.186;2023-06-22T09:10:04;18.67;;;6.60;;
75096;SDS011;63684;47.964;11.186;2023-06-22T09:12:30;16.63;;;6.45;;
75096;SDS011;63684;47.964;11.186;2023-06-22T09:14:57;18.35;;;6.78;;
75096;SDS011;63684;47.964;11.186;2023-06-22T09:17:24;21.55;;;7.63;;
75096;SDS011;63684;47.964;11.186;2023-06-22T09:19:50;14.40;;;7.28;;
75096;SDS011;63684;47.964;11.186;2023-06-22T09:22:15;21.83;;;7.50;;
75096;SDS011;63684;47.964;11.186;2023-06-22T09:24:41;20.25;;;7.35;;
75096;SDS011;63684;47.964;11.186;2023-06-22T09:27:06;19.80;;;7.00;;
75096;SDS011;63684;47.964;11.186;2023-06-22T09:29:32;19.95;;;7.03;;
75096;SDS011;63684;47.964;11.186;2023-06-22T09:31:59;20.42;;;6.95;;
75096;SDS011;63684;47.964;11.186;2023-06-22T09:34:29;16.23;;;6.75;;
75096;SDS011;63684;47.964;11.186;2023-06-22T09:36:56;18.25;;;6.60;;
75096;SDS011;63684;47.964;11.186;2023-06-22T09:39:22;17.00;;;7.25;;
75096;SDS011;63684;47.964;11.186;2023-06-22T09:41:47;25.13;;;7.55;;
75096;SDS011;63684;47.964;11.186;2023-06-22T09:44:13;22.23;;;6.88;;
75096;SDS011;63684;47.964;11.186;2023-06-22T09:46:38;14.88;;;6.63;;
75096;SDS011;63684;47.964;11.186;2023-06-22T09:49:04;21.92;;;7.05;;
75096;SDS011;63684;47.964;11.186;2023-06-22T09:51:29;20.48;;;7.07;;
75096;SDS011;63684;47.964;11.186;2023-06-22T09:53:56;22.85;;;6.82;;
75096;SDS011;63684;47.964;11.186;2023-06-22T09:56:23;21.52;;;7.20;;
75096;SDS011;63684;47.964;11.186;2023-06-22T09:58:48;17.13;;;7.00;;
75096;SDS011;63684;47.964;11.186;2023-06-22T10:01:17;19.55;;;7.63;;
75096;SDS011;63684;47.964;11.186;2023-06-22T10:03:43;16.88;;;7.10;;
75096;SDS011;63684;47.964;11.186;2023-06-22T10:06:09;26.40;;;7.25;;
75096;SDS011;63684;47.964;11.186;2023-06-22T10:08:34;20.40;;;6.63;;
75096;SDS011;63684;47.964;11.186;2023-06-22T10:11:01;25.20;;;7.55;;
75096;SDS011;63684;47.964;11.186;2023-06-22T10:13:27;20.58;;;7.10;;
75096;SDS011;63684;47.964;11.186;2023-06-22T10:15:52;18.30;;;6.78;;
75096;SDS011;63684;47.964;11.186;2023-06-22T10:18:18;24.50;;;7.32;;
75096;SDS011;63684;47.964;11.186;2023-06-22T10:20:46;23.35;;;7.85;;
75096;SDS011;63684;47.964;11.186;2023-06-22T10:23:13;17.38;;;6.93;;
75096;SDS011;63684;47.964;11.186;2023-06-22T10:25:39;22.98;;;7.47;;
75096;SDS011;63684;47.964;11.186;2023-06-22T10:28:04;16.58;;;7.68;;
75096;SDS011;63684;47.964;11.186;2023-06-22T10:30:30;18.02;;;7.10;;
75096;SDS011;63684;47.964;11.186;2023-06-22T10:32:56;22.48;;;7.45;;
75096;SDS011;63684;47.964;11.186;2023-06-22T10:35:21;22.85;;;7.38;;
75096;SDS011;63684;47.964;11.186;2023-06-22T10:37:48;27.20;;;8.13;;
75096;SDS011;63684;47.964;11.186;2023-06-22T10:40:14;17.23;;;7.20;;
75096;SDS011;63684;47.964;11.186;2023-06-22T10:42:40;19.60;;;6.65;;
75096;SDS011;63684;47.964;11.186;2023-06-22T10:45:06;16.90;;;6.90;;
75096;SDS011;63684;47.964;11.186;2023-06-22T10:47:36;19.65;;;7.20;;
75096;SDS011;63684;47.964;11.186;2023-06-22T10:50:02;21.52;;;7.45;;
75096;SDS011;63684;47.964;11.186;2023-06-22T10:52:28;19.38;;;7.13;;
75096;SDS011;63684;47.964;11.186;2023-06-22T10:54:54;20.15;;;7.45;;
75096;SDS011;63684;47.964;11.186;2023-06-22T10:57:21;16.83;;;6.93;;
75096;SDS011;63684;47.964;11.186;2023-06-22T10:59:47;16.55;;;6.60;;
75096;SDS011;63684;47.964;11.186;2023-06-22T11:02:13;24.27;;;6.93;;
75096;SDS011;63684;47.964;11.186;2023-06-22T11:04:38;22.63;;;7.10;;
75096;SDS011;63684;47.964;11.186;2023-06-22T11:07:04;17.52;;;6.68;;
75096;SDS011;63684;47.964;11.186;2023-06-22T11:09:30;27.05;;;6.63;;
75096;SDS011;63684;47.964;11.186;2023-06-22T11:11:57;22.13;;;6.90;;
75096;SDS011;63684;47.964;11.186;2023-06-22T11:14:24;15.45;;;6.32;;
75096;SDS011;63684;47.964;11.186;2023-06-22T11:16:50;19.15;;;6.93;;
75096;SDS011;63684;47.964;11.186;2023-06-22T11:19:16;20.65;;;6.28;;
75096;SDS011;63684;47.964;11.186;2023-06-22T11:21:41;25.58;;;6.93;;
75096;SDS011;63684;47.964;11.186;2023-06-22T11:24:07;19.20;;;6.82;;
75096;SDS011;63684;47.964;11.186;2023-06-22T11:26:33;14.80;;;6.53;;
75096;SDS011;63684;47.964;11.186;2023-06-22T11:28:58;21.10;;;6.10;;
75096;SDS011;63684;47.964;11.186;2023-06-22T11:31:24;21.77;;;6.55;;
75096;SDS011;63684;47.964;11.186;2023-06-22T11:33:50;20.88;;;6.50;;
75096;SDS011;63684;47.964;11.186;2023-06-22T11:36:16;20.10;;;6.57;;
75096;SDS011;63684;47.964;11.186;2023-06-22T11:38:42;22.50;;;6.78;;
75096;SDS011;63684;47.964;11.186;2023-06-22T11:41:08;19.38;;;6.53;;
75096;SDS011;63684;47.964;11.186;2023-06-22T11:43:34;21.52;;;6.70;;
75096;SDS011;63684;47.964;11.186;2023-06-22T11:46:01;21.95;;;7.35;;
75096;SDS011;63684;47.964;11.186;2023-06-22T11:48:28;20.05;;;6.95;;
75096;SDS011;63684;47.964;11.186;2023-06-22T11:50:54;22.70;;;6.85;;
75096;SDS011;63684;47.964;11.186;2023-06-22T11:53:20;21.73;;;6.85;;
75096;SDS011;63684;47.964;11.186;2023-06-22T11:55:46;23.00;;;7.32;;
75096;SDS011;63684;47.964;11.186;2023-06-22T11:58:12;19.40;;;7.03;;
75096;SDS011;63684;47.964;11.186;2023-06-22T12:00:38;22.20;;;7.65;;
75096;SDS011;63684;47.964;11.186;2023-06-22T12:03:03;16.25;;;7.10;;
75096;SDS011;63684;47.964;11.186;2023-06-22T12:05:29;25.40;;;8.13;;
75096;SDS011;63684;47.964;11.186;2023-06-22T12:07:55;16.08;;;7.20;;
75096;SDS011;63684;47.964;11.186;2023-06-22T12:10:21;19.58;;;7.15;;
75096;SDS011;63684;47.964;11.186;2023-06-22T12:12:48;20.00;;;6.82;;
75096;SDS011;63684;47.964;11.186;2023-06-22T12:15:14;22.90;;;7.05;;
75096;SDS011;63684;47.964;11.186;2023-06-22T12:17:40;23.13;;;7.15;;
75096;SDS011;63684;47.964;11.186;2023-06-22T12:20:05;24.30;;;8.25;;
75096;SDS011;63684;47.964;11.186;2023-06-22T12:22:32;21.92;;;7.32;;
75096;SDS011;63684;47.964;11.186;2023-06-22T12:24:58;20.10;;;7.18;;
75096;SDS011;63684;47.964;11.186;2023-06-22T12:27:24;19.67;;;7.38;;
75096;SDS011;63684;47.964;11.186;2023-06-22T12:29:50;23.33;;;6.97;;
75096;SDS011;63684;47.964;11.186;2023-06-22T12:32:15;27.00;;;7.55;;
75096;SDS011;63684;47.964;11.186;2023-06-22T12:34:42;20.85;;;7.60;;
75096;SDS011;63684;47.964;11.186;2023-06-22T12:37:08;21.08;;;7.38;;
75096;SDS011;63684;47.964;11.186;2023-06-22T12:39:33;27.00;;;7.90;;
75096;SDS011;63684;47.964;11.186;2023-06-22T12:41:59;22.77;;;7.75;;
75096;SDS011;63684;47.964;11.186;2023-06-22T12:44:25;20.65;;;6.82;;
75096;SDS011;63684;47.964;11.186;2023-06-22T12:46:51;15.70;;;7.07;;
75096;SDS011;63684;47.964;11.186;2023-06-22T12:49:17;28.10;;;7.07;;
75096;SDS011;63684;47.964;11.186;2023-06-22T12:51:43;20.63;;;7.00;;
75096;SDS011;63684;47.964;11.186;2023-06-22T12:54:09;26.58;;;7.57;;
75096;SDS011;63684;47.964;11.186;2023-06-22T12:56:35;23.27;;;7.15;;
75096;SDS011;63684;47.964;11.186;2023-06-22T12:59:01;19.05;;;6.68;;
75096;SDS011;63684;47.964;11.186;2023-06-22T13:01:27;16.45;;;7.10;;
75096;SDS011;63684;47.964;11.186;2023-06-22T13:03:53;18.73;;;7.07;;
75096;SDS011;63684;47.964;11.186;2023-06-22T13:06:19;19.52;;;7.38;;
75096;SDS011;63684;47.964;11.186;2023-06-22T13:08:44;15.13;;;6.90;;
75096;SDS011;63684;47.964;11.186;2023-06-22T13:11:10;21.88;;;6.97;;
75096;SDS011;63684;47.964;11.186;2023-06-22T13:13:36;22.58;;;7.28;;
75096;SDS011;63684;47.964;11.186;2023-06-22T13:16:01;23.27;;;6.97;;
75096;SDS011;63684;47.964;11.186;2023-06-22T13:18:27;22.95;;;7.35;;
75096;SDS011;63684;47.964;11.186;2023-06-22T13:20:53;15.40;;;6.88;;
75096;SDS011;63684;47.964;11.186;2023-06-22T13:23:22;19.92;;;6.95;;
75096;SDS011;63684;47.964;11.186;2023-06-22T13:25:48;22.65;;;7.05;;
75096;SDS011;63684;47.964;11.186;2023-06-22T13:28:13;18.60;;;7.38;;
75096;SDS011;63684;47.964;11.186;2023-06-22T13:30:41;18.20;;;7.10;;
75096;SDS011;63684;47.964;11.186;2023-06-22T13:33:07;27.00;;;7.65;;
75096;SDS011;63684;47.964;11.186;2023-06-22T13:35:34;20.58;;;7.60;;
75096;SDS011;63684;47.964;11.186;2023-06-22T13:38:00;15.07;;;6.75;;
75096;SDS011;63684;47.964;11.186;2023-06-22T13:40:26;21.95;;;7.85;;
75096;SDS011;63684;47.964;11.186;2023-06-22T13:42:52;16.70;;;7.32;;
75096;SDS011;63684;47.964;11.186;2023-06-22T13:45:18;19.23;;;7.13;;
75096;SDS011;63684;47.964;11.186;2023-06-22T13:47:45;15.52;;;6.80;;
75096;SDS011;63684;47.964;11.186;2023-06-22T13:50:10;18.65;;;6.82;;
75096;SDS011;63684;47.964;11.186;2023-06-22T13:52:38;14.80;;;6.75;;
75096;SDS011;63684;47.964;11.186;2023-06-22T13:55:04;22.42;;;7.30;;
75096;SDS011;63684;47.964;11.186;2023-06-22T13:57:31;19.83;;;7.18;;
75096;SDS011;63684;47.964;11.186;2023-06-22T13:59:56;17.00;;;7.13;;
75096;SDS011;63684;47.964;11.186;2023-06-22T14:02:22;19.27;;;7.00;;
75096;SDS011;63684;47.964;11.186;2023-06-22T14:04:48;25.98;;;6.97;;
75096;SDS011;63684;47.964;11.186;2023-06-22T14:07:13;19.50;;;7.07;;
75096;SDS011;63684;47.964;11.186;2023-06-22T14:09:39;16.73;;;6.32;;
75096;SDS011;63684;47.964;11.186;2023-06-22T14:12:05;21.42;;;7.15;;
75096;SDS011;63684;47.964;11.186;2023-06-22T14:14:31;17.08;;;6.95;;
75096;SDS011;63684;47.964;11.186;2023-06-22T14:16:58;17.17;;;7.18;;
75096;SDS011;63684;47.964;11.186;2023-06-22T14:19:24;23.98;;;6.78;;
75096;SDS011;63684;47.964;11.186;2023-06-22T14:21:50;20.30;;;7.00;;
75096;SDS011;63684;47.964;11.186;2023-06-22T14:24:16;18.23;;;6.85;;